Aérodrome :
LOGIN :

S'inscrire | Disclaimer

   EN    FR    IT 

 










Légende :    VFR   VFR Marginal   IFR   IFR Intensif   IFR Très Intensif
Visi : 
Plafond : 
>= 8 km
>= 3000ft
5 à 8 km
1000 à 3000 ft
1500m à 5 km
500 à 1000 ft
800 à 1500m
200 à 500 ft
< 800m
< 200 ft
Symboles :   Orages  Brouillard  Fortes neiges  Fortes précipitations  Vent > 20 kt
SIGMETs :   Divers  Orages  Givrage  Turbulence  Onde Orograph.  Cendres Volcan.







- Altitude de l'aérodrome : 240 ft
- Code IATA : VLC


LEVC - Valencia Manises

DERNIER METAR :
  • 180000Z VRB05G17KT 9999 FEW025 23/20 Q1019 NOSIG

METARs EXPIRÉS :
  • 172330Z 04007KT 360V070 9999 FEW025 23/20 Q1019 NOSIG
  • 172300Z 05007KT 9999 FEW025 24/20 Q1019 NOSIG
  • 172230Z 06010KT 9999 SCT025 24/20 Q1019 NOSIG
  • 172200Z 07006KT 9999 SCT025 26/19 Q1019 NOSIG
  • 172130Z 07006KT 9999 FEW025 26/19 Q1019 NOSIG

TAF TAF LEVC
Valide du 18 à 00h jusqu'au 19 à 00h UTC


172300Z 1800/1824 06010KT 9999 SCT025 TX27/1812Z TN21/1805Z
TEMPO 1800/1809 VRB03KT
BECMG 1810/1812 11010KT
BECMG 1818/1820 VRB04KT
Pas de NOTAMs connus pour ce terrain.
1 SIGMET publié pour la FIR Barcelona (LECB) :
 
Orages noyés dans la masse
LECB SIGMET 16 VALID 172300/180100 LEVA
LECB BARCELONA FIR/UIR EMBD TS OBS AT 2250Z WI N4040 E00237 - N3947 E00113 - N3918 E00149 - N4005 E00326 - N4040 E00237 TOP FL380 MOV SE NC=



MET'MAP, la Météo Aéronautique d'un coup d'oeil ! - Copyright ORBIFLY Décembre 2007 - Disclaimer

ORBIFLY MET'MAP TEAM :

Programmation & Développement : Alexandra Zaïnal
Conception & Développement : Baudouin d'Aumeries
Co-Programmation & Développement : Marc-Olivier Méhu
Soutien technique & logistique : Manuel Goepfert

Contact : metmap@orbifly.com




SOURCES & CREDITS :

   NOAA